createdAt,value
2018-08-06T00:00:16.997Z,87.70
2018-08-06T00:02:46.501Z,87.80
2018-08-06T00:05:15.077Z,88.00
2018-08-06T00:07:43.611Z,88.20
2018-08-06T00:10:13.829Z,88.30
2018-08-06T00:12:43.660Z,88.50
2018-08-06T00:15:13.147Z,88.60
2018-08-06T00:17:42.032Z,89.00
2018-08-06T00:20:12.661Z,89.50
2018-08-06T00:22:41.577Z,90.00
2018-08-06T00:25:11.362Z,90.00
2018-08-06T00:27:40.261Z,90.10
2018-08-06T00:30:13.291Z,90.30
2018-08-06T00:32:43.369Z,90.60
2018-08-06T00:35:12.765Z,90.80
2018-08-06T00:37:41.616Z,91.20
2018-08-06T00:40:13.833Z,91.20
2018-08-06T00:42:44.176Z,91.20
2018-08-06T00:45:14.520Z,91.50
2018-08-06T00:47:43.275Z,91.70
2018-08-06T00:50:13.362Z,92.00
2018-08-06T00:52:43.151Z,92.20
2018-08-06T00:55:14.264Z,92.20
2018-08-06T00:57:43.577Z,92.20
2018-08-06T01:00:13.876Z,92.40
2018-08-06T01:02:42.781Z,92.60
2018-08-06T01:05:12.680Z,92.70
2018-08-06T01:07:41.695Z,92.70
2018-08-06T01:10:18.265Z,92.80
2018-08-06T01:12:47.202Z,92.90
2018-08-06T01:15:17.208Z,93.30
2018-08-06T01:17:45.728Z,93.40
2018-08-06T01:20:14.826Z,93.60
2018-08-06T01:22:46.217Z,93.50
2018-08-06T01:25:15.374Z,93.50
2018-08-06T01:27:43.909Z,93.50
2018-08-06T01:30:14.281Z,93.50
2018-08-06T01:32:42.973Z,93.40
2018-08-06T01:35:11.873Z,93.50
2018-08-06T01:37:40.421Z,93.60
2018-08-06T01:40:11.210Z,93.60
2018-08-06T01:42:40.320Z,93.60
2018-08-06T01:45:09.352Z,93.70
2018-08-06T01:47:38.387Z,93.80
2018-08-06T01:50:08.076Z,93.80
2018-08-06T01:52:36.940Z,94.10
2018-08-06T01:55:06.395Z,94.20
2018-08-06T01:57:35.358Z,94.50
2018-08-06T02:00:08.032Z,94.80
2018-08-06T02:02:36.905Z,94.90
2018-08-06T02:05:06.789Z,95.10
2018-08-06T02:07:35.653Z,95.20
2018-08-06T02:10:05.816Z,95.40
2018-08-06T02:12:34.377Z,95.60
2018-08-06T02:15:02.902Z,95.80
2018-08-06T02:17:31.412Z,96.00
2018-08-06T02:20:00.251Z,96.40
2018-08-06T02:22:29.101Z,96.30
2018-08-06T02:24:57.639Z,96.50
2018-08-06T02:27:26.497Z,96.50
2018-08-06T02:29:55.033Z,96.50
2018-08-06T02:32:33.238Z,96.70
2018-08-06T02:35:02.143Z,96.70
2018-08-06T02:37:30.673Z,97.10
2018-08-06T02:39:59.946Z,97.10
2018-08-06T02:42:28.815Z,97.00
2018-08-06T02:44:57.357Z,97.10
2018-08-06T02:47:27.482Z,97.30
2018-08-06T02:49:56.039Z,97.70
2018-08-06T02:52:25.520Z,97.90
2018-08-06T02:54:54.408Z,97.90
2018-08-06T02:57:23.325Z,98.40
2018-08-06T02:59:52.669Z,98.70
2018-08-06T03:02:21.221Z,99.00
2018-08-06T03:04:50.801Z,99.30
2018-08-06T03:09:48.227Z,99.40
2018-08-06T03:12:16.749Z,99.40
2018-08-06T03:14:46.563Z,99.80
2018-08-06T03:17:15.746Z,99.60
2018-08-06T03:19:44.272Z,99.80
2018-08-06T03:22:13.785Z,99.80
2018-08-06T03:24:43.386Z,99.90
2018-08-06T03:27:11.898Z,99.90
2018-08-06T03:29:41.080Z,99.90
2018-08-06T03:32:09.782Z,99.90
2018-08-06T03:34:38.928Z,99.90
2018-08-06T03:37:07.479Z,99.90
2018-08-06T03:39:36.021Z,99.90
2018-08-06T03:42:04.927Z,99.90
2018-08-06T03:44:35.121Z,99.90
2018-08-06T03:47:03.665Z,99.90
2018-08-06T03:49:32.215Z,99.90
2018-08-06T03:52:01.059Z,99.90
2018-08-06T03:54:30.077Z,99.90
2018-08-06T03:56:58.933Z,99.90
2018-08-06T03:59:27.809Z,99.90
2018-08-06T04:01:56.329Z,99.90
2018-08-06T04:04:25.552Z,99.90
2018-08-06T04:06:54.385Z,99.90
2018-08-06T04:09:22.959Z,99.90
2018-08-06T04:11:51.806Z,99.90
2018-08-06T04:14:20.656Z,99.90
2018-08-06T04:16:49.176Z,99.90
2018-08-06T04:19:18.412Z,99.90
2018-08-06T04:21:47.197Z,99.90
2018-08-06T04:24:16.090Z,99.90
2018-08-06T04:26:45.046Z,99.90
2018-08-06T04:29:13.601Z,99.90
2018-08-06T04:31:45.161Z,99.90
2018-08-06T04:34:14.109Z,99.70
2018-08-06T04:36:42.629Z,99.50
2018-08-06T04:39:11.901Z,99.20
2018-08-06T04:41:40.613Z,99.00
2018-08-06T04:44:09.791Z,98.70
2018-08-06T04:46:39.096Z,98.50
2018-08-06T04:49:08.378Z,98.40
2018-08-06T04:51:37.842Z,98.40
2018-08-06T04:54:06.890Z,98.40
2018-08-06T04:56:35.732Z,98.50
2018-08-06T04:59:04.250Z,98.20
2018-08-06T05:01:34.305Z,98.30
2018-08-06T05:04:04.624Z,98.20
2018-08-06T05:06:33.139Z,98.10
2018-08-06T05:09:02.749Z,97.90
2018-08-06T05:11:31.582Z,98.00
2018-08-06T05:14:01.009Z,97.50
2018-08-06T05:16:34.590Z,97.30
2018-08-06T05:19:03.429Z,97.30
2018-08-06T05:21:31.948Z,97.10
2018-08-06T05:24:01.800Z,97.10
2018-08-06T05:26:30.940Z,97.10
2018-08-06T05:29:00.354Z,97.10
2018-08-06T05:31:29.361Z,97.10
2018-08-06T05:33:58.973Z,96.90
2018-08-06T05:36:34.138Z,96.70
2018-08-06T05:39:02.997Z,96.90
2018-08-06T05:41:32.182Z,97.30
2018-08-06T05:44:02.081Z,97.30
2018-08-06T05:46:31.852Z,97.30
2018-08-06T05:49:00.340Z,97.40
2018-08-06T05:51:28.849Z,97.50
2018-08-06T05:53:57.540Z,97.50
2018-08-06T05:56:26.310Z,97.50
2018-08-06T05:58:55.340Z,97.40
2018-08-06T06:01:24.003Z,97.20
2018-08-06T06:03:52.668Z,97.00
2018-08-06T06:06:21.164Z,97.20
2018-08-06T06:08:49.975Z,97.30
2018-08-06T06:11:18.798Z,97.20
2018-08-06T06:13:47.916Z,97.30
2018-08-06T06:16:16.397Z,97.30
2018-08-06T06:18:45.082Z,97.20
2018-08-06T06:21:14.053Z,97.10
2018-08-06T06:23:43.193Z,97.00
2018-08-06T06:26:12.352Z,96.90
2018-08-06T06:28:41.201Z,97.00
2018-08-06T06:31:09.845Z,96.90
2018-08-06T06:33:38.350Z,96.80
2018-08-06T06:36:06.899Z,96.70
2018-08-06T06:38:35.390Z,96.70
2018-08-06T06:41:04.643Z,96.60
2018-08-06T06:43:33.472Z,96.20
2018-08-06T06:46:01.970Z,95.90
2018-08-06T06:48:30.490Z,95.80
2018-08-06T06:50:59.341Z,95.90
2018-08-06T06:53:27.826Z,95.80
2018-08-06T06:55:56.604Z,95.70
2018-08-06T06:58:25.436Z,95.60
2018-08-06T07:00:54.520Z,95.40
2018-08-06T07:03:23.508Z,95.10
2018-08-06T07:05:52.830Z,94.90
2018-08-06T07:08:21.306Z,94.60
2018-08-06T07:10:49.821Z,94.60
2018-08-06T07:13:18.345Z,94.40
2018-08-06T07:15:47.194Z,93.90
2018-08-06T07:18:15.691Z,93.80
2018-08-06T07:20:45.222Z,93.30
2018-08-06T07:23:13.729Z,92.90
2018-08-06T07:25:42.257Z,92.80
2018-08-06T07:28:18.786Z,91.90
2018-08-06T07:30:47.285Z,92.10
2018-08-06T07:33:17.073Z,91.60
2018-08-06T07:35:46.102Z,91.00
2018-08-06T07:38:14.929Z,91.30
2018-08-06T07:40:44.549Z,90.50
2018-08-06T07:43:13.094Z,90.00
2018-08-06T07:45:41.768Z,90.00
2018-08-06T07:48:10.272Z,89.10
2018-08-06T07:50:39.119Z,89.20
2018-08-06T07:53:13.621Z,87.90
2018-08-06T07:55:46.743Z,87.80
2018-08-06T07:58:21.122Z,87.80
2018-08-06T08:00:51.260Z,86.90
2018-08-06T08:03:23.885Z,86.40
2018-08-06T08:06:01.447Z,85.70
2018-08-06T08:08:30.851Z,84.20
2018-08-06T08:10:59.666Z,81.60
2018-08-06T08:13:29.994Z,79.40
2018-08-06T08:15:58.886Z,78.10
2018-08-06T08:18:27.115Z,77.20
2018-08-06T08:20:55.714Z,74.90
2018-08-06T08:23:24.269Z,74.10
2018-08-06T08:25:52.866Z,73.50
2018-08-06T08:28:21.421Z,72.50
2018-08-06T08:30:49.681Z,71.60
2018-08-06T08:33:18.522Z,70.90
2018-08-06T08:35:46.970Z,68.30
2018-08-06T08:38:15.503Z,68.50
2018-08-06T08:40:44.090Z,67.40
2018-08-06T08:43:12.320Z,67.30
2018-08-06T08:45:41.020Z,65.20
2018-08-06T08:48:09.866Z,64.60
2018-08-06T08:50:38.078Z,63.70
2018-08-06T08:53:06.308Z,63.20
2018-08-06T08:55:34.529Z,63.30
2018-08-06T08:58:02.761Z,63.20
2018-08-06T09:00:31.013Z,61.90
2018-08-06T09:02:59.587Z,62.50
2018-08-06T09:05:27.810Z,62.40
2018-08-06T09:07:56.335Z,62.70
2018-08-06T09:10:25.090Z,62.00
2018-08-06T09:12:53.664Z,61.80
2018-08-06T09:15:23.405Z,61.60
2018-08-06T09:17:51.968Z,60.90
2018-08-06T09:20:20.193Z,61.10
2018-08-06T09:22:49.157Z,61.60
2018-08-06T09:25:17.461Z,61.10
2018-08-06T09:27:47.829Z,60.80
2018-08-06T09:30:17.673Z,60.00
2018-08-06T09:32:48.522Z,59.50
2018-08-06T09:35:17.505Z,58.80
2018-08-06T09:37:46.520Z,58.70
2018-08-06T09:40:16.049Z,58.70
2018-08-06T09:42:45.413Z,58.20
2018-08-06T09:45:15.613Z,57.80
2018-08-06T09:47:44.953Z,57.00
2018-08-06T09:50:14.239Z,56.90
2018-08-06T09:52:43.457Z,55.90
2018-08-06T09:55:18.145Z,55.40
2018-08-06T09:57:46.921Z,54.80
2018-08-06T10:00:22.105Z,54.70
2018-08-06T10:02:53.448Z,54.00
2018-08-06T10:05:35.293Z,54.10
2018-08-06T10:08:03.672Z,53.40
2018-08-06T10:10:31.913Z,52.80
2018-08-06T10:13:01.073Z,52.20
2018-08-06T10:15:29.497Z,51.10
2018-08-06T10:17:58.100Z,51.90
2018-08-06T10:20:27.059Z,52.20
2018-08-06T10:22:55.600Z,51.80
2018-08-06T10:25:23.849Z,50.40
2018-08-06T10:27:52.083Z,50.90
2018-08-06T10:30:22.170Z,50.60
2018-08-06T10:32:50.483Z,50.10
2018-08-06T10:35:19.386Z,50.60
2018-08-06T10:37:47.945Z,50.10
2018-08-06T10:40:25.121Z,49.30
2018-08-06T10:42:54.060Z,48.90
2018-08-06T10:45:23.449Z,49.10
2018-08-06T10:47:52.444Z,48.40
2018-08-06T10:50:20.985Z,49.00
2018-08-06T10:52:49.567Z,48.30
2018-08-06T10:55:18.136Z,48.40
2018-08-06T10:57:47.367Z,48.30
2018-08-06T11:00:18.566Z,48.80
2018-08-06T11:02:47.238Z,49.00
2018-08-06T11:05:16.321Z,48.70
2018-08-06T11:07:44.884Z,47.30
2018-08-06T11:10:20.447Z,47.60
2018-08-06T11:12:48.877Z,47.80
2018-08-06T11:15:18.854Z,47.70
2018-08-06T11:17:48.085Z,47.80
2018-08-06T11:20:17.459Z,47.30
2018-08-06T11:22:46.989Z,47.60
2018-08-06T11:25:18.307Z,47.10
2018-08-06T11:27:47.121Z,46.70
2018-08-06T11:30:17.215Z,46.30
2018-08-06T11:32:46.338Z,46.40
2018-08-06T11:35:14.892Z,46.10
2018-08-06T11:37:43.157Z,46.20
2018-08-06T11:40:12.466Z,44.90
2018-08-06T11:42:41.498Z,45.10
2018-08-06T11:45:12.337Z,45.40
2018-08-06T11:47:40.976Z,45.00
2018-08-06T11:50:09.853Z,45.00
2018-08-06T11:52:38.144Z,45.10
2018-08-06T11:55:07.021Z,44.60
2018-08-06T11:57:35.276Z,44.90
2018-08-06T12:00:06.177Z,44.00
2018-08-06T12:02:34.407Z,43.50
2018-08-06T12:05:02.981Z,43.60
2018-08-06T12:07:31.546Z,43.10
2018-08-06T12:10:00.129Z,42.60
2018-08-06T12:12:28.988Z,42.40
2018-08-06T12:14:57.881Z,42.50
2018-08-06T12:17:26.452Z,42.60
2018-08-06T12:19:54.665Z,42.80
2018-08-06T12:22:23.213Z,43.30
2018-08-06T12:24:51.791Z,43.10
2018-08-06T12:27:20.434Z,43.20
2018-08-06T12:29:49.089Z,42.20
2018-08-06T12:32:17.325Z,41.80
2018-08-06T12:34:45.882Z,41.80
2018-08-06T12:39:42.404Z,42.10
2018-08-06T12:42:11.006Z,42.20
2018-08-06T12:44:39.279Z,41.30
2018-08-06T12:47:07.840Z,41.30
2018-08-06T12:49:36.798Z,41.20
2018-08-06T12:52:05.030Z,40.60
2018-08-06T12:54:33.302Z,40.50
2018-08-06T12:57:02.261Z,41.00
2018-08-06T12:59:30.998Z,40.70
2018-08-06T13:01:59.857Z,41.00
2018-08-06T13:04:28.405Z,41.40
2018-08-06T13:06:56.949Z,40.70
2018-08-06T13:09:25.201Z,41.10
2018-08-06T13:11:53.785Z,40.50
2018-08-06T13:14:21.993Z,40.90
2018-08-06T13:16:50.580Z,40.50
2018-08-06T13:19:18.813Z,40.20
2018-08-06T13:21:47.027Z,40.40
2018-08-06T13:24:15.880Z,40.70
2018-08-06T13:26:44.409Z,40.90
2018-08-06T13:29:12.944Z,40.30
2018-08-06T13:31:41.909Z,40.20
2018-08-06T13:34:11.468Z,40.40
2018-08-06T13:36:40.175Z,40.20
2018-08-06T13:39:09.776Z,39.70
2018-08-06T13:41:38.314Z,39.80
2018-08-06T13:44:09.158Z,40.00
2018-08-06T13:46:37.792Z,40.30
2018-08-06T13:49:07.213Z,40.20
2018-08-06T13:54:08.395Z,39.50
2018-08-06T13:56:36.658Z,39.40
2018-08-06T13:59:05.677Z,39.00
2018-08-06T14:01:34.540Z,39.00
2018-08-06T14:04:02.805Z,38.90
2018-08-06T14:06:32.919Z,38.40
2018-08-06T14:09:01.147Z,38.60
2018-08-06T14:11:29.716Z,38.30
2018-08-06T14:16:26.595Z,38.40
2018-08-06T14:18:54.894Z,38.10
2018-08-06T14:21:23.137Z,38.10
2018-08-06T14:23:51.706Z,37.90
2018-08-06T14:26:19.961Z,38.00
2018-08-06T14:28:48.588Z,37.90
2018-08-06T14:31:16.801Z,38.10
2018-08-06T14:33:45.368Z,37.70
2018-08-06T14:36:14.075Z,37.70
2018-08-06T14:38:42.991Z,37.70
2018-08-06T14:41:11.207Z,37.50
2018-08-06T14:43:39.431Z,37.70
2018-08-06T14:46:07.698Z,37.40
2018-08-06T14:48:36.918Z,36.90
2018-08-06T14:51:05.122Z,35.50
2018-08-06T14:56:02.693Z,35.60
2018-08-06T14:58:31.497Z,35.90
2018-08-06T15:00:59.737Z,35.30
2018-08-06T15:03:27.982Z,34.30
2018-08-06T15:05:56.931Z,34.00
2018-08-06T15:10:53.539Z,34.40
2018-08-06T15:13:22.113Z,33.80
2018-08-06T15:15:50.326Z,34.30
2018-08-06T15:18:18.889Z,34.90
2018-08-06T15:20:47.801Z,35.00
2018-08-06T15:23:16.065Z,34.90
2018-08-06T15:25:44.278Z,34.70
2018-08-06T15:28:12.856Z,34.30
2018-08-06T15:30:41.470Z,34.40
2018-08-06T15:33:10.037Z,33.60
2018-08-06T15:35:38.597Z,34.00
2018-08-06T15:38:06.909Z,33.70
2018-08-06T15:40:35.168Z,34.30
2018-08-06T15:43:03.765Z,32.90
2018-08-06T15:45:32.183Z,32.70
2018-08-06T15:48:00.497Z,32.80
2018-08-06T15:50:29.064Z,32.90
2018-08-06T15:53:09.750Z,33.20
2018-08-06T15:55:38.371Z,32.50
2018-08-06T15:58:06.693Z,32.80
2018-08-06T16:00:35.663Z,33.30
2018-08-06T16:03:04.397Z,33.80
2018-08-06T16:05:33.540Z,34.20
2018-08-06T16:08:01.807Z,34.20
2018-08-06T16:10:30.082Z,34.40
2018-08-06T16:12:58.369Z,34.70
2018-08-06T16:15:27.337Z,34.80
2018-08-06T16:17:55.677Z,35.10
2018-08-06T16:20:24.353Z,35.40
2018-08-06T16:22:52.666Z,35.40
2018-08-06T16:25:20.949Z,35.30
2018-08-06T16:27:49.567Z,35.30
2018-08-06T16:30:20.233Z,35.70
2018-08-06T16:32:48.930Z,35.80
2018-08-06T16:35:18.931Z,35.80
2018-08-06T16:37:47.598Z,36.10
2018-08-06T16:40:16.178Z,35.90
2018-08-06T16:42:44.480Z,35.90
2018-08-06T16:45:12.724Z,35.90
2018-08-06T16:47:41.316Z,35.90
2018-08-06T16:50:11.994Z,36.60
2018-08-06T16:52:40.437Z,36.20
2018-08-06T16:55:09.438Z,36.40
2018-08-06T16:57:37.724Z,36.70
2018-08-06T17:00:10.294Z,36.80
2018-08-06T17:02:38.753Z,36.90
2018-08-06T17:05:09.202Z,36.80
2018-08-06T17:07:37.446Z,37.00
2018-08-06T17:12:39.053Z,39.50
2018-08-06T17:17:36.702Z,38.70
2018-08-06T17:22:35.300Z,38.60
2018-08-06T17:25:03.723Z,38.60
2018-08-06T17:30:01.890Z,38.70
2018-08-06T17:32:30.141Z,38.80
2018-08-06T17:34:58.428Z,38.70
2018-08-06T17:37:27.771Z,38.60
2018-08-06T17:39:56.654Z,38.90
2018-08-06T17:42:25.281Z,38.80
2018-08-06T17:44:53.860Z,38.80
2018-08-06T17:47:22.663Z,39.60
2018-08-06T17:49:51.270Z,39.40
2018-08-06T17:52:19.889Z,39.50
2018-08-06T17:54:48.478Z,39.70
2018-08-06T17:57:17.049Z,39.90
2018-08-06T17:59:45.517Z,40.10
2018-08-06T18:02:14.505Z,40.70
2018-08-06T18:07:20.862Z,41.00
2018-08-06T18:12:19.693Z,41.30
2018-08-06T18:14:51.726Z,41.60
2018-08-06T18:17:20.332Z,41.80
2018-08-06T18:22:31.406Z,42.40
2018-08-06T18:25:00.014Z,42.70
2018-08-06T18:27:33.062Z,43.10
2018-08-06T18:30:02.741Z,43.60
2018-08-06T18:35:16.890Z,43.60
2018-08-06T18:37:46.071Z,43.70
2018-08-06T19:16:16.104Z,46.30
2018-08-06T19:18:50.433Z,46.60
2018-08-06T19:21:19.764Z,46.70
2018-08-06T19:23:48.038Z,46.70
2018-08-06T19:26:33.350Z,47.30
2018-08-06T19:29:03.750Z,47.60
2018-08-06T19:31:32.354Z,47.80
2018-08-06T19:34:04.179Z,48.10
2018-08-06T19:36:39.165Z,48.70
2018-08-06T19:39:09.392Z,48.80
2018-08-06T19:41:42.189Z,48.80
2018-08-06T19:44:11.216Z,49.00
2018-08-06T19:46:41.390Z,49.30
2018-08-06T19:49:16.432Z,48.80
2018-08-06T19:51:46.665Z,48.20
2018-08-06T19:54:17.192Z,47.50
2018-08-06T19:56:46.853Z,47.90
2018-08-06T20:01:57.995Z,48.80
2018-08-06T20:04:27.779Z,49.40
2018-08-06T20:06:56.917Z,49.80
2018-08-06T20:09:32.145Z,50.10
2018-08-06T20:12:01.446Z,50.30
2018-08-06T20:17:14.349Z,51.70
2018-08-06T20:19:42.965Z,51.20
2018-08-06T20:22:17.401Z,51.10
2018-08-06T20:24:47.643Z,51.30
2018-08-06T20:27:18.480Z,51.30
2018-08-06T20:29:48.044Z,51.60
2018-08-06T20:32:18.018Z,51.80
2018-08-06T20:34:46.749Z,51.70
2018-08-06T20:37:19.566Z,52.30
2018-08-06T20:39:53.197Z,52.40
2018-08-06T20:42:21.871Z,52.40
2018-08-06T20:44:51.609Z,52.60
2018-08-06T20:47:19.844Z,52.70
2018-08-06T20:49:48.109Z,53.00
2018-08-06T20:52:17.812Z,53.10
2018-08-06T20:54:46.058Z,53.10
2018-08-06T20:57:14.608Z,53.80
2018-08-06T20:59:43.781Z,53.50
2018-08-06T21:02:12.419Z,54.00
2018-08-06T21:04:45.443Z,53.90
2018-08-06T21:07:20.925Z,54.10
2018-08-06T21:09:49.825Z,54.20
2018-08-06T21:12:18.423Z,54.20
2018-08-06T21:14:47.424Z,54.30
2018-08-06T21:17:16.593Z,55.20
2018-08-06T21:19:45.106Z,54.70
2018-08-06T21:22:13.353Z,54.80
2018-08-06T21:24:42.766Z,54.80
2018-08-06T21:27:11.342Z,54.60
2018-08-06T21:29:40.299Z,54.80
2018-08-06T21:32:08.902Z,54.90
2018-08-06T21:34:37.482Z,55.10
2018-08-06T21:37:07.340Z,55.10
2018-08-06T21:39:58.699Z,55.20
2018-08-06T21:42:27.288Z,55.30
2018-08-06T21:44:55.865Z,55.60
2018-08-06T21:47:24.300Z,55.70
2018-08-06T21:49:53.681Z,55.90
2018-08-06T21:52:21.917Z,56.10
2018-08-06T21:54:50.494Z,56.30
2018-08-06T21:57:19.056Z,56.80
2018-08-06T21:59:47.968Z,57.10
2018-08-06T22:02:16.186Z,57.50
2018-08-06T22:04:44.408Z,57.70
2018-08-06T22:07:12.981Z,58.00
2018-08-06T22:09:41.221Z,58.20
2018-08-06T22:12:09.497Z,58.30
2018-08-06T22:14:37.733Z,58.60
2018-08-06T22:17:06.877Z,58.80
2018-08-06T22:19:35.121Z,59.00
2018-08-06T22:22:03.699Z,59.20
2018-08-06T22:24:32.274Z,59.30
2018-08-06T22:27:00.845Z,59.60
2018-08-06T22:29:29.736Z,59.60
2018-08-06T22:31:58.013Z,59.90
2018-08-06T22:34:26.598Z,60.00
2018-08-06T22:36:54.842Z,60.30
2018-08-06T22:39:23.069Z,60.40
2018-08-06T22:41:51.286Z,60.60
2018-08-06T22:44:19.523Z,60.50
2018-08-06T22:46:47.780Z,60.80
2018-08-06T22:49:16.345Z,61.00
2018-08-06T22:51:45.181Z,61.20
2018-08-06T22:54:13.472Z,61.20
2018-08-06T22:56:41.970Z,61.30
2018-08-06T22:59:11.101Z,61.40
2018-08-06T23:01:40.256Z,61.90
2018-08-06T23:04:08.783Z,62.00
2018-08-06T23:06:37.294Z,62.10
2018-08-06T23:09:09.737Z,62.00
2018-08-06T23:11:39.349Z,62.30
2018-08-06T23:14:08.380Z,62.60
2018-08-06T23:16:37.333Z,62.70
2018-08-06T23:19:06.435Z,62.70
2018-08-06T23:21:34.949Z,62.70
2018-08-06T23:24:03.580Z,62.60
2018-08-06T23:26:32.792Z,63.00
2018-08-06T23:29:02.004Z,62.80
2018-08-06T23:31:30.237Z,63.10
2018-08-06T23:33:58.760Z,62.90
2018-08-06T23:36:27.940Z,63.00
2018-08-06T23:38:56.192Z,63.40
2018-08-06T23:41:24.670Z,63.70
2018-08-06T23:43:53.848Z,63.70
2018-08-06T23:46:22.708Z,63.70
2018-08-06T23:48:51.157Z,63.80
2018-08-06T23:51:19.407Z,64.30
2018-08-06T23:53:47.640Z,64.40
2018-08-06T23:56:16.197Z,64.60
2018-08-06T23:58:45.091Z,64.30
